Time;durP1;ratioP1;P1;durP2;ratioP2;P2;SDS_P1;SDS_P2;PMS_P1;PMS_P2;Temp;Humidity;BMP_temperature;BMP_pressure;BME280_temperature;BME280_humidity;BME280_pressure;Samples;Min_cycle;Max_cycle;Signal;HPM_P1;HPM_P2
2022/03/05 00:01:47;;;;;;;12.53;11.17;;;;;;;;;;5062148;28;24445;-50
2022/03/05 00:04:14;;;;;;;12.90;11.00;;;;;;;;;;5064290;28;24800;-51
2022/03/05 00:06:39;;;;;;;15.25;12.40;;;;;;;;;;5063832;28;24465;-51
2022/03/05 00:09:04;;;;;;;15.15;12.27;;;;;;;;;;5068900;28;24418;-51
2022/03/05 00:11:29;;;;;;;15.23;12.20;;;;;;;;;;5064620;28;24502;-52
2022/03/05 00:13:54;;;;;;;14.05;11.55;;;;;;;;;;5066387;28;24417;-52
2022/03/05 00:16:19;;;;;;;15.25;12.30;;;;;;;;;;5066683;28;24522;-52
2022/03/05 00:18:44;;;;;;;14.85;12.13;;;;;;;;;;5064006;28;24419;-52
2022/03/05 00:21:10;;;;;;;13.90;12.00;;;;;;;;;;5067156;28;24470;-52
2022/03/05 00:23:36;;;;;;;13.77;11.77;;;;;;;;;;5069476;28;24427;-52
2022/03/05 00:26:01;;;;;;;13.80;12.10;;;;;;;;;;5067369;28;24819;-52
2022/03/05 00:28:26;;;;;;;16.10;13.33;;;;;;;;;;5061365;28;24706;-52
2022/03/05 00:30:54;;;;;;;15.55;13.35;;;;;;;;;;5064112;28;25009;-52
2022/03/05 00:33:20;;;;;;;15.27;13.07;;;;;;;;;;5059510;28;24446;-51
2022/03/05 00:35:45;;;;;;;15.73;13.02;;;;;;;;;;5065754;28;24442;-52
2022/03/05 00:38:11;;;;;;;15.70;13.30;;;;;;;;;;5065952;28;24468;-51
2022/03/05 00:40:36;;;;;;;15.70;13.85;;;;;;;;;;5061996;28;24418;-52
2022/03/05 00:43:01;;;;;;;14.30;12.90;;;;;;;;;;5065459;28;25016;-52
2022/03/05 00:45:26;;;;;;;16.67;13.40;;;;;;;;;;5064678;28;24417;-52
2022/03/05 00:47:52;;;;;;;14.30;12.80;;;;;;;;;;5066286;28;24430;-53
2022/03/05 00:50:17;;;;;;;16.73;13.90;;;;;;;;;;5066637;28;24399;-52
2022/03/05 00:52:42;;;;;;;14.60;12.80;;;;;;;;;;5066270;28;25052;-52
2022/03/05 00:55:08;;;;;;;16.40;13.13;;;;;;;;;;5065548;28;24572;-53
2022/03/05 00:57:33;;;;;;;17.23;14.17;;;;;;;;;;5070688;28;24592;-51
2022/03/05 00:59:58;;;;;;;17.80;13.90;;;;;;;;;;5068243;28;24414;-52
2022/03/05 01:02:23;;;;;;;17.15;14.50;;;;;;;;;;5069253;28;25370;-53
2022/03/05 01:04:48;;;;;;;16.90;14.47;;;;;;;;;;5072050;28;24426;-53
2022/03/05 01:07:14;;;;;;;16.93;13.10;;;;;;;;;;5071420;28;25039;-51
2022/03/05 01:09:39;;;;;;;16.47;13.87;;;;;;;;;;5069202;28;24413;-52
2022/03/05 01:12:04;;;;;;;15.93;13.20;;;;;;;;;;5068022;28;24419;-52
2022/03/05 01:14:29;;;;;;;14.33;12.90;;;;;;;;;;5069898;28;24430;-51
2022/03/05 01:16:54;;;;;;;15.67;13.60;;;;;;;;;;5065676;28;24422;-52
2022/03/05 01:19:20;;;;;;;19.08;14.45;;;;;;;;;;5069905;28;24422;-52
2022/03/05 01:21:45;;;;;;;17.50;14.80;;;;;;;;;;5067367;28;24435;-53
2022/03/05 01:24:10;;;;;;;17.53;13.30;;;;;;;;;;5069851;28;24458;-51
2022/03/05 01:26:35;;;;;;;16.00;14.00;;;;;;;;;;5064782;28;24472;-52
2022/03/05 01:29:00;;;;;;;16.23;14.10;;;;;;;;;;5077313;28;24948;-52
2022/03/05 01:31:26;;;;;;;15.52;13.88;;;;;;;;;;5066829;28;24415;-52
2022/03/05 01:33:51;;;;;;;19.27;14.93;;;;;;;;;;5070345;28;24423;-52
2022/03/05 01:36:16;;;;;;;16.10;14.40;;;;;;;;;;5062996;28;24805;-52
2022/03/05 01:38:41;;;;;;;19.07;14.70;;;;;;;;;;5069453;28;24458;-51
2022/03/05 01:41:06;;;;;;;18.17;15.70;;;;;;;;;;5063589;28;24484;-51
2022/03/05 01:43:31;;;;;;;19.17;14.80;;;;;;;;;;5068737;28;24567;-50
2022/03/05 01:45:57;;;;;;;19.50;14.98;;;;;;;;;;5065536;28;24468;-51
2022/03/05 01:48:22;;;;;;;17.80;14.03;;;;;;;;;;5068946;28;24423;-52
2022/03/05 01:50:47;;;;;;;18.70;14.00;;;;;;;;;;5075734;28;24468;-51
2022/03/05 01:53:12;;;;;;;18.65;14.15;;;;;;;;;;5068876;28;24435;-52
2022/03/05 01:55:37;;;;;;;16.50;14.30;;;;;;;;;;5067349;28;24817;-51
2022/03/05 01:58:03;;;;;;;18.93;14.60;;;;;;;;;;5069520;28;25152;-51
2022/03/05 02:00:28;;;;;;;16.50;13.80;;;;;;;;;;5071943;28;24422;-51
2022/03/05 02:02:53;;;;;;;16.63;13.85;;;;;;;;;;5068896;28;24458;-51
2022/03/05 02:05:18;;;;;;;17.07;14.00;;;;;;;;;;5065466;28;24423;-51
2022/03/05 02:07:44;;;;;;;18.43;13.73;;;;;;;;;;5067876;28;24454;-52
2022/03/05 02:10:09;;;;;;;17.63;13.57;;;;;;;;;;5049732;28;24940;-51
2022/03/05 02:12:35;;;;;;;16.57;13.73;;;;;;;;;;5068898;28;24426;-52
2022/03/05 02:15:01;;;;;;;16.88;14.27;;;;;;;;;;5073248;28;24483;-51
2022/03/05 02:17:27;;;;;;;18.27;14.07;;;;;;;;;;5069139;28;24476;-51
2022/03/05 02:19:52;;;;;;;17.02;14.50;;;;;;;;;;5061384;28;24426;-52
2022/03/05 02:22:17;;;;;;;18.80;14.70;;;;;;;;;;5073551;28;24437;-54
2022/03/05 02:24:42;;;;;;;19.52;15.00;;;;;;;;;;5062561;28;24484;-52
2022/03/05 02:27:08;;;;;;;15.95;13.55;;;;;;;;;;5068402;28;24411;-52
2022/03/05 02:29:34;;;;;;;15.40;13.77;;;;;;;;;;5068671;28;24439;-52
2022/03/05 02:31:59;;;;;;;17.83;14.80;;;;;;;;;;5068755;28;24445;-52
2022/03/05 02:34:24;;;;;;;16.67;14.33;;;;;;;;;;5067137;28;24836;-53
2022/03/05 02:36:50;;;;;;;15.83;14.13;;;;;;;;;;5066693;28;24429;-53
2022/03/05 02:39:15;;;;;;;16.37;14.57;;;;;;;;;;5065859;28;24972;-53
2022/03/05 02:41:40;;;;;;;16.52;14.35;;;;;;;;;;5067879;28;24533;-54
2022/03/05 02:44:05;;;;;;;17.80;14.18;;;;;;;;;;5069096;28;24458;-52
2022/03/05 02:46:33;;;;;;;17.30;14.10;;;;;;;;;;5070128;28;24425;-52
2022/03/05 02:48:58;;;;;;;17.35;15.10;;;;;;;;;;5067261;28;24801;-53
2022/03/05 02:51:23;;;;;;;17.88;14.25;;;;;;;;;;5071311;28;24477;-52
2022/03/05 02:53:48;;;;;;;17.58;15.10;;;;;;;;;;5066630;28;24437;-52
2022/03/05 02:56:14;;;;;;;17.77;15.57;;;;;;;;;;5069391;28;24438;-52
2022/03/05 02:58:39;;;;;;;16.53;14.83;;;;;;;;;;5066006;28;24419;-52
2022/03/05 03:01:04;;;;;;;15.77;13.75;;;;;;;;;;5067564;28;24956;-52
2022/03/05 03:03:29;;;;;;;16.50;14.80;;;;;;;;;;5066609;28;24995;-52
2022/03/05 03:05:54;;;;;;;17.83;15.30;;;;;;;;;;5068392;28;24864;-52
2022/03/05 03:08:20;;;;;;;17.33;14.93;;;;;;;;;;5065779;28;24958;-52
2022/03/05 03:10:45;;;;;;;17.20;14.88;;;;;;;;;;5066673;28;24492;-52
2022/03/05 03:13:10;;;;;;;16.83;14.63;;;;;;;;;;5067306;28;24472;-53
2022/03/05 03:15:35;;;;;;;16.88;15.18;;;;;;;;;;5071787;28;24414;-52
2022/03/05 03:18:00;;;;;;;17.57;15.70;;;;;;;;;;5063846;28;24434;-53
2022/03/05 03:20:26;;;;;;;19.50;15.90;;;;;;;;;;5067867;28;24976;-53
2022/03/05 03:22:52;;;;;;;18.20;15.60;;;;;;;;;;5066414;28;24449;-52
2022/03/05 03:25:17;;;;;;;18.83;16.13;;;;;;;;;;5068124;28;24415;-55
2022/03/05 03:27:43;;;;;;;17.40;15.40;;;;;;;;;;5068684;28;24559;-52
2022/03/05 03:30:09;;;;;;;16.50;14.50;;;;;;;;;;5069557;28;24818;-51
2022/03/05 03:32:35;;;;;;;17.33;14.98;;;;;;;;;;5065563;28;24427;-52
2022/03/05 03:35:00;;;;;;;17.25;15.10;;;;;;;;;;5066342;28;24792;-53
2022/03/05 03:37:29;;;;;;;17.58;15.20;;;;;;;;;;5061187;28;24422;-52
2022/03/05 03:39:55;;;;;;;16.20;14.50;;;;;;;;;;5066978;28;24777;-53
2022/03/05 03:42:20;;;;;;;16.90;15.20;;;;;;;;;;5060660;28;24559;-52
2022/03/05 03:44:46;;;;;;;16.80;14.60;;;;;;;;;;5066046;28;24952;-52
2022/03/05 03:47:11;;;;;;;17.30;15.50;;;;;;;;;;5061763;28;24427;-53
2022/03/05 03:49:36;;;;;;;17.00;14.80;;;;;;;;;;5066811;28;24407;-52
2022/03/05 03:52:01;;;;;;;19.73;15.30;;;;;;;;;;5069022;28;24849;-52
2022/03/05 03:54:26;;;;;;;16.60;14.90;;;;;;;;;;5066983;28;24406;-52
2022/03/05 03:56:52;;;;;;;16.77;14.93;;;;;;;;;;5069491;28;25007;-52
2022/03/05 03:59:17;;;;;;;17.20;15.40;;;;;;;;;;5070918;28;24418;-52
2022/03/05 04:01:42;;;;;;;16.53;14.80;;;;;;;;;;5063743;28;24494;-52
2022/03/05 04:04:07;;;;;;;16.58;14.77;;;;;;;;;;5068203;28;24414;-53
2022/03/05 04:09:16;;;;;;;17.27;15.30;;;;;;;;;;5070110;28;25011;-53
2022/03/05 04:11:41;;;;;;;15.43;13.82;;;;;;;;;;5065427;28;24427;-52
2022/03/05 04:14:06;;;;;;;18.10;15.33;;;;;;;;;;5066004;28;24793;-51
2022/03/05 04:16:32;;;;;;;18.92;14.23;;;;;;;;;;5063501;28;24426;-50
2022/03/05 04:18:57;;;;;;;17.25;13.75;;;;;;;;;;5069227;28;24417;-50
2022/03/05 04:21:22;;;;;;;16.73;14.63;;;;;;;;;;5073193;28;24837;-53
2022/03/05 04:23:47;;;;;;;16.73;14.10;;;;;;;;;;5068022;28;24473;-51
2022/03/05 04:26:12;;;;;;;15.80;14.10;;;;;;;;;;5064861;28;24451;-60
2022/03/05 04:28:37;;;;;;;15.93;13.73;;;;;;;;;;5065346;28;24509;-51
2022/03/05 04:31:03;;;;;;;18.27;14.57;;;;;;;;;;5066624;28;24435;-52
2022/03/05 04:33:28;;;;;;;20.20;15.10;;;;;;;;;;5066239;28;24426;-51
2022/03/05 04:35:54;;;;;;;18.50;15.15;;;;;;;;;;5063268;28;24422;-52
2022/03/05 04:38:19;;;;;;;17.20;14.70;;;;;;;;;;5057954;28;24440;-50
2022/03/05 04:40:44;;;;;;;16.43;13.97;;;;;;;;;;5070939;28;24410;-51
2022/03/05 04:43:09;;;;;;;16.67;14.43;;;;;;;;;;5064966;28;24952;-51
2022/03/05 04:45:34;;;;;;;18.90;15.23;;;;;;;;;;5059014;28;24414;-51
2022/03/05 04:47:59;;;;;;;15.80;14.07;;;;;;;;;;5065393;28;24491;-51
2022/03/05 04:50:24;;;;;;;20.15;14.75;;;;;;;;;;5065129;28;25034;-52
2022/03/05 04:52:50;;;;;;;17.37;13.93;;;;;;;;;;5063352;28;24426;-54
2022/03/05 04:55:15;;;;;;;20.48;14.77;;;;;;;;;;5066432;28;24414;-51
2022/03/05 04:57:40;;;;;;;15.70;14.10;;;;;;;;;;5061540;28;24419;-51
2022/03/05 05:00:07;;;;;;;16.60;14.10;;;;;;;;;;5066470;28;24464;-51
2022/03/05 05:02:32;;;;;;;17.40;13.85;;;;;;;;;;5065454;28;24419;-51
2022/03/05 05:04:57;;;;;;;18.10;15.87;;;;;;;;;;5066196;28;24426;-51
2022/03/05 05:07:22;;;;;;;15.90;14.20;;;;;;;;;;5065698;28;24715;-51
2022/03/05 05:09:47;;;;;;;18.13;13.40;;;;;;;;;;5065360;28;24756;-52
2022/03/05 05:12:12;;;;;;;16.80;14.37;;;;;;;;;;5065527;28;24488;-52
2022/03/05 05:14:38;;;;;;;15.73;13.18;;;;;;;;;;5065869;28;24438;-51
2022/03/05 05:17:03;;;;;;;16.23;14.10;;;;;;;;;;5065626;28;24778;-51
2022/03/05 05:19:28;;;;;;;16.45;14.60;;;;;;;;;;5065599;28;24526;-52
2022/03/05 05:21:57;;;;;;;17.00;14.23;;;;;;;;;;5065648;28;24429;-52
2022/03/05 05:24:24;;;;;;;17.90;14.50;;;;;;;;;;5065174;28;24521;-51
2022/03/05 05:26:49;;;;;;;16.05;13.73;;;;;;;;;;5065398;28;24983;-52
2022/03/05 05:29:14;;;;;;;16.00;13.73;;;;;;;;;;5066078;28;24570;-52
2022/03/05 05:31:40;;;;;;;17.80;14.50;;;;;;;;;;5065815;28;25232;-53
2022/03/05 05:34:05;;;;;;;18.13;14.30;;;;;;;;;;5069687;28;24476;-52
2022/03/05 05:36:30;;;;;;;16.42;14.30;;;;;;;;;;5063390;28;24423;-53
2022/03/05 05:38:55;;;;;;;18.03;13.90;;;;;;;;;;5063014;28;24402;-51
2022/03/05 05:41:20;;;;;;;20.33;15.10;;;;;;;;;;5065938;28;24517;-53
2022/03/05 05:43:46;;;;;;;18.43;14.80;;;;;;;;;;5068255;28;24494;-52
2022/03/05 05:46:11;;;;;;;18.93;15.93;;;;;;;;;;5077855;28;24510;-51
2022/03/05 05:48:36;;;;;;;18.92;14.57;;;;;;;;;;5072068;28;24919;-51
2022/03/05 05:51:01;;;;;;;19.43;14.50;;;;;;;;;;5075920;28;24410;-52
2022/03/05 05:53:26;;;;;;;18.92;13.95;;;;;;;;;;5063771;28;24770;-50
2022/03/05 05:55:53;;;;;;;16.92;14.43;;;;;;;;;;5070368;28;24560;-51
2022/03/05 05:58:18;;;;;;;18.63;15.13;;;;;;;;;;5068888;28;24411;-52
2022/03/05 06:00:43;;;;;;;17.53;14.30;;;;;;;;;;5070470;28;24426;-51
2022/03/05 06:03:09;;;;;;;18.35;14.13;;;;;;;;;;5069399;28;25030;-51
2022/03/05 06:05:34;;;;;;;20.08;15.30;;;;;;;;;;5066269;28;24434;-53
2022/03/05 06:07:59;;;;;;;19.17;14.73;;;;;;;;;;5067281;28;24517;-52
2022/03/05 06:10:24;;;;;;;17.60;14.30;;;;;;;;;;5066746;28;24414;-52
2022/03/05 06:12:49;;;;;;;18.27;14.20;;;;;;;;;;5067130;28;24434;-51
2022/03/05 06:15:15;;;;;;;17.55;14.18;;;;;;;;;;5068008;28;24521;-52
2022/03/05 06:17:43;;;;;;;18.00;13.93;;;;;;;;;;5069125;28;24418;-52
2022/03/05 06:20:08;;;;;;;17.17;14.40;;;;;;;;;;5068677;28;24433;-51
2022/03/05 06:22:34;;;;;;;17.33;14.90;;;;;;;;;;5067285;28;24431;-52
2022/03/05 06:24:59;;;;;;;16.80;14.20;;;;;;;;;;5065672;28;24461;-52
2022/03/05 06:27:24;;;;;;;17.55;14.55;;;;;;;;;;5066699;28;25024;-53
2022/03/05 06:29:49;;;;;;;16.35;13.30;;;;;;;;;;5067380;28;24592;-53
2022/03/05 06:32:14;;;;;;;18.33;14.57;;;;;;;;;;5064030;28;25023;-53
2022/03/05 06:34:40;;;;;;;15.57;13.80;;;;;;;;;;5067859;28;24452;-51
2022/03/05 06:37:05;;;;;;;17.92;14.32;;;;;;;;;;5072565;28;24453;-53
2022/03/05 06:39:30;;;;;;;16.88;15.07;;;;;;;;;;5067778;28;24446;-52
2022/03/05 06:41:57;;;;;;;18.75;14.77;;;;;;;;;;5067275;28;25304;-52
2022/03/05 06:44:22;;;;;;;15.90;14.20;;;;;;;;;;5063418;28;24440;-52
2022/03/05 06:46:47;;;;;;;18.75;15.40;;;;;;;;;;5061894;28;26057;-52
2022/03/05 06:49:14;;;;;;;17.98;15.32;;;;;;;;;;5064200;28;25010;-52
2022/03/05 06:51:39;;;;;;;18.00;16.13;;;;;;;;;;5069266;28;24425;-52
2022/03/05 06:54:04;;;;;;;16.63;14.80;;;;;;;;;;5059336;28;24862;-51
2022/03/05 06:56:30;;;;;;;16.58;14.88;;;;;;;;;;5061515;28;24549;-52
2022/03/05 06:58:55;;;;;;;17.98;15.80;;;;;;;;;;5062111;28;24442;-51
2022/03/05 07:01:20;;;;;;;17.83;16.02;;;;;;;;;;5058146;28;25130;-52
2022/03/05 07:03:45;;;;;;;17.92;16.02;;;;;;;;;;5066868;28;24480;-52
2022/03/05 07:06:10;;;;;;;17.20;15.43;;;;;;;;;;5063098;28;24450;-52
2022/03/05 07:08:36;;;;;;;18.60;16.50;;;;;;;;;;5064331;28;25048;-52
2022/03/05 07:11:02;;;;;;;19.83;17.83;;;;;;;;;;5067305;28;24407;-52
2022/03/05 07:13:27;;;;;;;19.92;17.83;;;;;;;;;;5063548;28;24445;-52
2022/03/05 07:15:52;;;;;;;18.75;16.67;;;;;;;;;;5069831;28;24937;-52
2022/03/05 07:18:17;;;;;;;20.38;17.52;;;;;;;;;;5065902;28;24438;-52
2022/03/05 07:20:43;;;;;;;22.70;18.90;;;;;;;;;;5068161;28;24398;-51
2022/03/05 07:23:08;;;;;;;23.67;19.83;;;;;;;;;;5066681;28;24450;-51
2022/03/05 07:25:36;;;;;;;25.40;21.30;;;;;;;;;;5067906;28;24449;-51
2022/03/05 07:28:02;;;;;;;22.17;19.08;;;;;;;;;;5066810;28;24415;-51
2022/03/05 07:30:27;;;;;;;19.15;17.00;;;;;;;;;;5067636;28;24992;-52
2022/03/05 07:32:52;;;;;;;19.27;17.27;;;;;;;;;;5065948;28;24437;-51
2022/03/05 07:35:18;;;;;;;21.63;17.75;;;;;;;;;;5066072;28;24419;-55
2022/03/05 07:37:43;;;;;;;16.30;14.55;;;;;;;;;;5065476;28;24531;-51
2022/03/05 07:40:08;;;;;;;19.17;17.17;;;;;;;;;;5066602;28;24961;-52
2022/03/05 07:42:33;;;;;;;19.10;16.73;;;;;;;;;;5066463;28;24442;-52
2022/03/05 07:44:58;;;;;;;18.80;16.83;;;;;;;;;;5066609;28;24430;-52
2022/03/05 07:47:24;;;;;;;20.30;17.20;;;;;;;;;;5066322;28;24415;-52
2022/03/05 07:49:49;;;;;;;19.98;16.52;;;;;;;;;;5067369;28;24449;-51
2022/03/05 07:52:14;;;;;;;20.42;17.38;;;;;;;;;;5065206;28;24411;-52
2022/03/05 07:54:39;;;;;;;18.17;16.27;;;;;;;;;;5065534;28;24977;-52
2022/03/05 07:57:04;;;;;;;18.90;16.90;;;;;;;;;;5064838;28;24477;-51
2022/03/05 07:59:29;;;;;;;19.00;17.00;;;;;;;;;;5067292;28;24509;-52
2022/03/05 08:01:55;;;;;;;18.95;16.33;;;;;;;;;;5065985;28;24479;-53
2022/03/05 08:04:20;;;;;;;18.40;16.50;;;;;;;;;;5064547;28;24481;-52
2022/03/05 08:06:45;;;;;;;18.63;16.73;;;;;;;;;;5065278;28;24426;-51
2022/03/05 08:09:10;;;;;;;20.10;16.30;;;;;;;;;;5065623;28;25093;-51
2022/03/05 08:11:36;;;;;;;18.27;16.48;;;;;;;;;;5066028;28;24963;-52
2022/03/05 08:14:01;;;;;;;19.10;16.20;;;;;;;;;;5065588;28;24434;-52
2022/03/05 08:16:27;;;;;;;19.17;16.58;;;;;;;;;;5064319;28;24419;-52
2022/03/05 08:18:52;;;;;;;18.42;16.52;;;;;;;;;;5066673;28;24979;-52
2022/03/05 08:21:17;;;;;;;18.10;16.20;;;;;;;;;;5066032;28;24451;-52
2022/03/05 08:23:42;;;;;;;17.60;15.73;;;;;;;;;;5067031;28;24438;-52
2022/03/05 08:26:13;;;;;;;18.60;16.70;;;;;;;;;;5064316;28;24566;-53
2022/03/05 08:28:38;;;;;;;17.45;15.68;;;;;;;;;;5066538;28;24709;-51
2022/03/05 08:31:03;;;;;;;18.30;16.17;;;;;;;;;;5065973;28;24398;-51
2022/03/05 08:33:29;;;;;;;15.93;14.23;;;;;;;;;;5066107;28;24457;-52
2022/03/05 08:35:55;;;;;;;18.55;15.90;;;;;;;;;;5065371;28;24449;-51
2022/03/05 08:38:20;;;;;;;17.20;14.93;;;;;;;;;;5065810;28;24427;-53
2022/03/05 08:40:45;;;;;;;15.90;14.30;;;;;;;;;;5065730;28;24975;-51
2022/03/05 08:43:10;;;;;;;16.00;14.40;;;;;;;;;;5065451;28;24431;-51
2022/03/05 08:45:35;;;;;;;16.70;15.00;;;;;;;;;;5066043;28;24422;-52
2022/03/05 08:48:00;;;;;;;16.60;14.77;;;;;;;;;;5063392;28;24600;-52
2022/03/05 08:50:26;;;;;;;16.20;14.50;;;;;;;;;;5066986;28;24887;-51
2022/03/05 08:52:51;;;;;;;17.77;15.20;;;;;;;;;;5065882;28;24523;-52
2022/03/05 08:55:19;;;;;;;16.45;14.02;;;;;;;;;;5065792;28;24504;-52
2022/03/05 08:57:44;;;;;;;14.32;12.82;;;;;;;;;;5064507;28;24426;-52
2022/03/05 09:00:11;;;;;;;15.63;14.02;;;;;;;;;;5065624;28;24789;-52
2022/03/05 09:02:36;;;;;;;15.77;14.18;;;;;;;;;;5065456;28;24558;-51
2022/03/05 09:05:01;;;;;;;16.67;14.80;;;;;;;;;;5066303;28;24501;-52
2022/03/05 09:07:26;;;;;;;17.13;14.63;;;;;;;;;;5062983;28;24505;-52
2022/03/05 09:09:51;;;;;;;18.23;14.90;;;;;;;;;;5064973;28;24422;-51
2022/03/05 09:12:16;;;;;;;15.15;13.65;;;;;;;;;;5062952;28;24984;-52
2022/03/05 09:14:42;;;;;;;16.50;14.93;;;;;;;;;;5064544;28;25004;-51
2022/03/05 09:17:07;;;;;;;15.55;14.05;;;;;;;;;;5057597;28;24438;-52
2022/03/05 09:19:32;;;;;;;17.13;15.30;;;;;;;;;;5068100;28;24511;-52
2022/03/05 09:21:57;;;;;;;17.03;15.20;;;;;;;;;;5066404;28;24476;-52
2022/03/05 09:24:23;;;;;;;16.83;15.23;;;;;;;;;;5068707;28;24559;-53
2022/03/05 09:26:48;;;;;;;16.87;15.07;;;;;;;;;;5060524;28;24980;-52
2022/03/05 09:29:13;;;;;;;17.93;16.03;;;;;;;;;;5068412;28;24429;-52
2022/03/05 09:31:39;;;;;;;16.00;14.40;;;;;;;;;;5066199;28;24419;-52
2022/03/05 09:34:04;;;;;;;16.57;14.70;;;;;;;;;;5070018;28;24445;-52
2022/03/05 09:36:30;;;;;;;16.70;14.87;;;;;;;;;;5068795;28;24812;-52
2022/03/05 09:38:55;;;;;;;16.98;15.27;;;;;;;;;;5065314;28;26427;-52
2022/03/05 09:41:22;;;;;;;16.92;14.95;;;;;;;;;;5064473;28;24504;-52
2022/03/05 09:43:47;;;;;;;14.57;13.20;;;;;;;;;;5067222;28;25388;-52
2022/03/05 09:46:12;;;;;;;14.30;12.90;;;;;;;;;;5065900;28;24518;-52
2022/03/05 09:48:39;;;;;;;17.80;15.90;;;;;;;;;;5054007;28;24419;-52
2022/03/05 09:51:04;;;;;;;15.30;13.70;;;;;;;;;;5061597;28;24428;-51
2022/03/05 09:53:30;;;;;;;15.85;13.18;;;;;;;;;;5067451;28;24522;-52
2022/03/05 09:55:55;;;;;;;13.70;12.30;;;;;;;;;;5068904;28;24472;-52
2022/03/05 09:58:20;;;;;;;13.27;10.90;;;;;;;;;;5063443;28;24430;-51
2022/03/05 10:00:45;;;;;;;13.38;11.98;;;;;;;;;;5056289;28;24469;-53
2022/03/05 10:03:14;;;;;;;14.43;12.95;;;;;;;;;;5066542;28;24427;-53
2022/03/05 10:05:39;;;;;;;13.60;11.57;;;;;;;;;;5052828;28;24473;-52
2022/03/05 10:08:08;;;;;;;12.57;11.37;;;;;;;;;;5065519;28;24415;-52
2022/03/05 10:10:48;;;;;;;12.30;11.10;;;;;;;;;;5049399;28;24411;-51
2022/03/05 10:13:17;;;;;;;10.73;9.63;;;;;;;;;;5049000;28;24415;-52
2022/03/05 10:15:43;;;;;;;12.10;10.90;;;;;;;;;;5057376;28;24533;-51
2022/03/05 10:18:08;;;;;;;12.17;10.87;;;;;;;;;;5065383;28;24530;-51
2022/03/05 10:20:34;;;;;;;10.33;9.33;;;;;;;;;;5067458;28;24883;-52
2022/03/05 10:23:06;;;;;;;11.23;9.93;;;;;;;;;;5067822;28;24813;-52
2022/03/05 10:25:33;;;;;;;11.43;10.02;;;;;;;;;;5069242;28;24391;-52
2022/03/05 10:28:03;;;;;;;12.10;10.90;;;;;;;;;;5066423;28;24453;-52
2022/03/05 10:30:32;;;;;;;11.40;10.20;;;;;;;;;;5067974;28;24452;-52
2022/03/05 10:32:57;;;;;;;11.82;10.50;;;;;;;;;;5068195;28;24445;-52
2022/03/05 10:35:23;;;;;;;13.00;11.60;;;;;;;;;;5069181;28;24956;-52
2022/03/05 10:37:51;;;;;;;14.10;12.10;;;;;;;;;;5066669;28;24516;-55
2022/03/05 10:40:24;;;;;;;12.52;10.60;;;;;;;;;;5067419;28;24547;-52
2022/03/05 10:42:49;;;;;;;11.00;9.90;;;;;;;;;;5068514;28;24604;-53
2022/03/05 10:45:18;;;;;;;11.80;10.60;;;;;;;;;;5068726;28;24482;-52
2022/03/05 10:47:46;;;;;;;11.23;10.13;;;;;;;;;;5067867;28;24409;-53
2022/03/05 10:50:26;;;;;;;11.13;10.02;;;;;;;;;;5067255;28;24426;-52
2022/03/05 10:52:53;;;;;;;11.88;10.68;;;;;;;;;;5066973;28;24521;-53
2022/03/05 10:55:19;;;;;;;9.45;8.45;;;;;;;;;;5068696;28;24446;-53
2022/03/05 10:58:03;;;;;;;11.73;9.95;;;;;;;;;;5067961;28;24476;-53
2022/03/05 11:00:29;;;;;;;11.60;9.55;;;;;;;;;;5046399;28;24410;-51
2022/03/05 11:02:55;;;;;;;9.80;8.67;;;;;;;;;;5065591;28;24780;-53
2022/03/05 11:05:20;;;;;;;10.27;9.27;;;;;;;;;;5068064;28;24403;-53
2022/03/05 11:07:47;;;;;;;12.13;10.60;;;;;;;;;;5067639;28;24441;-54
2022/03/05 11:10:13;;;;;;;11.10;9.50;;;;;;;;;;5066148;28;24833;-53
2022/03/05 11:12:38;;;;;;;10.43;9.10;;;;;;;;;;5065727;28;25078;-53
2022/03/05 11:15:06;;;;;;;12.50;11.20;;;;;;;;;;5067053;28;24496;-53
2022/03/05 11:17:31;;;;;;;14.50;11.10;;;;;;;;;;5065776;28;24449;-53
2022/03/05 11:19:56;;;;;;;13.00;11.70;;;;;;;;;;5066452;28;24944;-52
2022/03/05 11:22:21;;;;;;;14.35;11.90;;;;;;;;;;5066751;28;24437;-52
2022/03/05 11:24:47;;;;;;;14.55;11.93;;;;;;;;;;5067233;28;24514;-52
2022/03/05 11:27:12;;;;;;;13.63;12.10;;;;;;;;;;5067200;28;24423;-52
2022/03/05 11:29:53;;;;;;;13.70;11.15;;;;;;;;;;5049832;28;24844;-52
2022/03/05 11:32:19;;;;;;;13.98;12.40;;;;;;;;;;5065342;28;24426;-52
2022/03/05 11:34:52;;;;;;;11.95;10.75;;;;;;;;;;5066694;28;25195;-52
2022/03/05 11:37:24;;;;;;;12.05;10.25;;;;;;;;;;5066554;28;24835;-52
2022/03/05 11:39:50;;;;;;;12.52;10.15;;;;;;;;;;5064502;28;25032;-52
2022/03/05 11:42:28;;;;;;;11.60;10.40;;;;;;;;;;5065259;28;25042;-52
2022/03/05 11:44:54;;;;;;;12.40;10.23;;;;;;;;;;5066911;28;25146;-52
2022/03/05 11:47:19;;;;;;;13.82;11.27;;;;;;;;;;5065772;28;24581;-52
2022/03/05 11:49:59;;;;;;;12.80;11.03;;;;;;;;;;5068043;28;24793;-52
2022/03/05 11:52:39;;;;;;;11.10;9.75;;;;;;;;;;5066728;28;25311;-52
2022/03/05 11:55:10;;;;;;;11.70;9.90;;;;;;;;;;5067885;28;24406;-53
2022/03/05 11:57:36;;;;;;;10.30;9.30;;;;;;;;;;5066630;28;24797;-51
2022/03/05 12:00:03;;;;;;;11.00;9.90;;;;;;;;;;5063418;28;24406;-52
2022/03/05 12:02:42;;;;;;;10.38;9.25;;;;;;;;;;5054880;28;24453;-52
2022/03/05 12:05:07;;;;;;;10.55;9.45;;;;;;;;;;5064479;28;24452;-51
2022/03/05 12:07:35;;;;;;;11.13;9.70;;;;;;;;;;5065262;28;24422;-52
2022/03/05 12:10:03;;;;;;;9.50;8.50;;;;;;;;;;5064424;28;24441;-50
2022/03/05 12:12:48;;;;;;;11.25;9.18;;;;;;;;;;5066212;28;24434;-50
2022/03/05 12:15:13;;;;;;;10.35;9.25;;;;;;;;;;5062666;28;24426;-51
2022/03/05 12:17:40;;;;;;;9.45;8.55;;;;;;;;;;5063491;28;24422;-52
2022/03/05 12:20:06;;;;;;;12.63;9.95;;;;;;;;;;5065916;28;24446;-51
2022/03/05 12:22:32;;;;;;;12.57;10.15;;;;;;;;;;5064279;28;24480;-51
2022/03/05 12:24:57;;;;;;;10.70;9.53;;;;;;;;;;5046352;28;24473;-52
2022/03/05 12:27:24;;;;;;;12.00;10.20;;;;;;;;;;5057559;28;24423;-52
2022/03/05 12:29:50;;;;;;;11.98;9.43;;;;;;;;;;5047020;28;24473;-50
2022/03/05 12:32:15;;;;;;;9.93;8.82;;;;;;;;;;5057536;28;24956;-51
2022/03/05 12:34:41;;;;;;;11.00;9.90;;;;;;;;;;5065125;28;24533;-51
2022/03/05 12:37:07;;;;;;;10.00;8.60;;;;;;;;;;5060817;28;24485;-50
2022/03/05 12:39:32;;;;;;;11.00;9.50;;;;;;;;;;5053322;28;24430;-51
2022/03/05 12:41:58;;;;;;;10.98;9.38;;;;;;;;;;5061734;28;24450;-52
2022/03/05 12:44:23;;;;;;;10.80;9.70;;;;;;;;;;5063933;28;24445;-51
2022/03/05 12:46:48;;;;;;;9.45;8.30;;;;;;;;;;5066321;28;25022;-52
2022/03/05 12:49:15;;;;;;;10.25;8.50;;;;;;;;;;5065898;28;24411;-52
2022/03/05 12:51:40;;;;;;;10.17;8.27;;;;;;;;;;5065633;28;24525;-52
2022/03/05 12:54:05;;;;;;;9.37;8.20;;;;;;;;;;5065013;28;24837;-52
2022/03/05 12:56:31;;;;;;;9.93;8.00;;;;;;;;;;5065932;28;24431;-52
2022/03/05 12:58:57;;;;;;;10.13;8.60;;;;;;;;;;5066980;28;24509;-51
2022/03/05 13:01:22;;;;;;;9.10;8.20;;;;;;;;;;5059078;28;25295;-53
2022/03/05 13:03:47;;;;;;;8.60;7.70;;;;;;;;;;5066116;28;24423;-52
2022/03/05 13:06:12;;;;;;;9.85;8.85;;;;;;;;;;5065989;28;24484;-53
2022/03/05 13:08:38;;;;;;;9.30;8.30;;;;;;;;;;5065897;28;24878;-52
2022/03/05 13:11:05;;;;;;;8.80;7.90;;;;;;;;;;5065540;28;25018;-52
2022/03/05 13:13:35;;;;;;;9.40;8.30;;;;;;;;;;5062867;28;24952;-52
2022/03/05 13:16:00;;;;;;;8.60;7.80;;;;;;;;;;5066234;28;24627;-52
2022/03/05 13:18:26;;;;;;;9.27;8.37;;;;;;;;;;5064846;28;24502;-51
2022/03/05 13:20:51;;;;;;;8.67;7.60;;;;;;;;;;5065662;28;24795;-52
2022/03/05 13:23:20;;;;;;;8.60;7.03;;;;;;;;;;5066488;28;25062;-52
2022/03/05 13:25:46;;;;;;;5.70;5.20;;;;;;;;;;5062884;28;24781;-53
2022/03/05 13:28:18;;;;;;;6.30;5.80;;;;;;;;;;5066478;28;24506;-52
2022/03/05 13:30:54;;;;;;;7.38;6.50;;;;;;;;;;5065089;28;24422;-51
2022/03/05 13:33:37;;;;;;;8.45;6.53;;;;;;;;;;5065584;28;24418;-53
2022/03/05 13:36:12;;;;;;;6.00;5.40;;;;;;;;;;5064664;28;24999;-52
2022/03/05 13:38:38;;;;;;;7.25;6.43;;;;;;;;;;5064629;28;24806;-53
2022/03/05 13:41:04;;;;;;;7.30;6.60;;;;;;;;;;5064643;28;25054;-51
2022/03/05 13:43:29;;;;;;;7.73;6.40;;;;;;;;;;5066109;28;24417;-52
2022/03/05 13:45:54;;;;;;;7.20;6.17;;;;;;;;;;5064583;28;25019;-51
2022/03/05 13:48:19;;;;;;;6.30;5.80;;;;;;;;;;5065162;28;24430;-51
2022/03/05 13:50:45;;;;;;;6.40;5.70;;;;;;;;;;5065489;28;24460;-51
2022/03/05 13:53:10;;;;;;;5.70;5.20;;;;;;;;;;5065606;28;24810;-51
2022/03/05 13:55:35;;;;;;;6.93;6.20;;;;;;;;;;5064933;28;24753;-52
2022/03/05 13:58:00;;;;;;;5.70;5.20;;;;;;;;;;5064741;28;24778;-52
2022/03/05 14:00:26;;;;;;;6.00;5.40;;;;;;;;;;5049042;28;24960;-52
2022/03/05 14:02:52;;;;;;;6.13;5.20;;;;;;;;;;5066068;28;24414;-52
2022/03/05 14:05:18;;;;;;;5.60;5.00;;;;;;;;;;5068324;28;24423;-51
2022/03/05 14:07:51;;;;;;;5.47;4.97;;;;;;;;;;5067796;28;24427;-51
2022/03/05 14:10:18;;;;;;;6.20;4.85;;;;;;;;;;5067171;28;24448;-51
2022/03/05 14:12:44;;;;;;;5.93;5.32;;;;;;;;;;5068782;28;24793;-51
2022/03/05 14:15:09;;;;;;;6.87;5.60;;;;;;;;;;5069802;28;24405;-51
2022/03/05 14:17:41;;;;;;;6.23;5.00;;;;;;;;;;5067692;28;25239;-51